Emmanuel Tomasos — C6SS7 — position and weather

sailwx.info

Track history (hours):
 
Tides and Currents Weather Stations Pressure Air Temp Water Temp Dewpoint Dewpoint Depression Visibility Wind Speed Wind Dir Waves Ship Positions

Emmanuel Tomasos

Last reported at 2016-Jul-23 08:17 UTC. Time now 2016-Jul-23 09:19 UTC.
Position S 24°05' W 046°14'.

Length 182 m; draft 8.5 m.

Type: Tanker. MMSI: 311459000.

Date/timePositionNaut miles runAvg speedWind from/ knotsBaromVisibWave heightAir tempDewpointWater temp
2016-Jul-23 08:17S 24°05' W 046°14'0 0.0
2016-Jul-23 06:23S 24°05' W 046°14'0 0.0
2016-Jul-23 04:29S 24°05' W 046°14'0 0.0
2016-Jul-23 03:32S 24°05' W 046°14'0 0.0
2016-Jul-23 02:32S 24°05' W 046°14'0 0.0
2016-Jul-23 01:23S 24°05' W 046°14'0 0.0
2016-Jul-23 00:26S 24°05' W 046°14'0 0.0
2016-Jul-22 23:29S 24°05' W 046°14'0 0.0
2016-Jul-22 21:26S 24°05' W 046°14'0 0.0
2016-Jul-22 20:29S 24°05' W 046°14'0 0.0
2016-Jul-22 19:05S 24°05' W 046°14'0 0.0
2016-Jul-22 18:23S 24°05' W 046°14'0 0.0
2016-Jul-22 17:29S 24°05' W 046°14'0 0.0
2016-Jul-22 16:11S 24°05' W 046°14'0 0.0
2016-Jul-22 15:11S 24°05' W 046°14'0 0.0
2016-Jul-22 14:23S 24°05' W 046°14'0 0.0
2016-Jul-22 13:23S 24°05' W 046°14'0 0.0
2016-Jul-22 12:29S 24°05' W 046°14'0 0.0
2016-Jul-22 11:29S 24°05' W 046°14'0 0.0
2016-Jul-22 10:29S 24°05' W 046°14'0 0.0
2016-Jul-22 09:32S 24°05' W 046°14'0 0.0
2016-Jul-22 08:32S 24°05' W 046°14'0 0.0
2016-Jul-22 07:23S 24°05' W 046°14'0 0.0
2016-Jul-22 04:29S 24°05' W 046°14'0 0.0
2016-Jul-22 03:11S 24°05' W 046°14'0 0.0
2016-Jul-22 02:29S 24°05' W 046°14'0 0.0
2016-Jul-22 01:23S 24°05' W 046°14'0 0.0
2016-Jul-22 00:29S 24°05' W 046°14'0 0.0
2016-Jul-21 23:14S 24°05' W 046°14'0 0.0
2016-Jul-21 22:29S 24°05' W 046°14'0 0.0
2016-Jul-21 21:29S 24°05' W 046°14'0 0.0
2016-Jul-21 20:23S 24°05' W 046°14'0 0.0
2016-Jul-21 19:17S 24°05' W 046°14'0 0.0
2016-Jul-21 18:29S 24°05' W 046°14'2 2.0
2016-Jul-21 17:32S 24°04' W 046°16'5 4.9
2016-Jul-21 16:28S 24°01' W 046°20'0 0.0
2016-Jul-21 15:31S 24°01' W 046°20'0 0.0
2016-Jul-21 14:31S 24°01' W 046°20'0 0.0
2016-Jul-21 13:28S 24°01' W 046°20'1 0.6
2016-Jul-21 12:33S 24°02' W 046°20'6 5.5
2016-Jul-21 11:34S 24°06' W 046°16'0 0.2
2016-Jul-21 10:25S 24°06' W 046°16'0 0.0
2016-Jul-21 09:31S 24°06' W 046°16'0 0.0
2016-Jul-21 08:25S 24°06' W 046°16'0 0.0
2016-Jul-21 07:22S 24°06' W 046°16'0 0.0
2016-Jul-21 06:28S 24°06' W 046°16'0 0.0
2016-Jul-21 05:25S 24°06' W 046°16'0 0.0
2016-Jul-21 04:16S 24°06' W 046°16'0 0.0
2016-Jul-21 03:07S 24°06' W 046°16'0 0.0
2016-Jul-21 02:19S 24°06' W 046°16'0 0.0
2016-Jul-21 01:31S 24°06' W 046°16'0 0.0
2016-Jul-21 00:25S 24°06' W 046°16'0 0.0
2016-Jul-20 23:31S 24°06' W 046°16'0 0.0
2016-Jul-20 22:31S 24°06' W 046°16'0 0.0
2016-Jul-20 21:31S 24°06' W 046°16'0 0.0
2016-Jul-20 20:22S 24°06' W 046°16'0 0.0
2016-Jul-20 19:31S 24°06' W 046°16'0 0.0
2016-Jul-20 18:22S 24°06' W 046°16'0 0.0
2016-Jul-20 17:31S 24°06' W 046°16'0 0.0
2016-Jul-20 16:22S 24°06' W 046°16'0 0.0
2016-Jul-20 15:28S 24°06' W 046°16'0 0.0
2016-Jul-20 14:16S 24°06' W 046°16'0 0.0
2016-Jul-20 13:28S 24°06' W 046°16'0 0.0
2016-Jul-20 12:31S 24°06' W 046°16'0 0.0
2016-Jul-20 11:28S 24°06' W 046°16'0 0.0
2016-Jul-20 10:28S 24°06' W 046°16'0 0.0
2016-Jul-20 09:28S 24°06' W 046°16'0 0.0
2016-Jul-20 08:22S 24°06' W 046°16'0 0.0
2016-Jul-20 07:22S 24°06' W 046°16'0 0.0
2016-Jul-20 06:34S 24°06' W 046°16'0 0.0
2016-Jul-20 04:25S 24°06' W 046°16'0 0.0
2016-Jul-20 03:25S 24°06' W 046°16'0 0.0
2016-Jul-20 02:28S 24°06' W 046°16'0 0.0
2016-Jul-20 01:31S 24°06' W 046°16'0 0.0
2016-Jul-20 00:28S 24°06' W 046°16'0 0.0
2016-Jul-19 23:22S 24°06' W 046°16'0 0.0
2016-Jul-19 22:28S 24°06' W 046°16'0 0.0
2016-Jul-19 21:31S 24°06' W 046°16'0 0.1
2016-Jul-19 20:28S 24°06' W 046°16'0 0.0
2016-Jul-19 19:31S 24°06' W 046°16'0 0.0
2016-Jul-19 18:28S 24°06' W 046°16'0 0.0
2016-Jul-19 17:22S 24°06' W 046°16'0 0.0
2016-Jul-19 16:28S 24°06' W 046°16'0 0.0
2016-Jul-19 15:28S 24°06' W 046°16'0 0.0
2016-Jul-19 14:22S 24°06' W 046°16'0 0.0
2016-Jul-19 13:19S 24°06' W 046°16'0 0.0
2016-Jul-19 12:28S 24°06' W 046°16'0 0.0
2016-Jul-19 11:31S 24°06' W 046°16'0 0.0
2016-Jul-19 10:25S 24°06' W 046°16'0 0.0
2016-Jul-19 09:28S 24°06' W 046°16'0 0.0
2016-Jul-19 08:28S 24°06' W 046°16'0 0.0
2016-Jul-19 07:31S 24°06' W 046°16'0 0.0
2016-Jul-19 06:31S 24°06' W 046°16'0 0.0
2016-Jul-19 04:31S 24°06' W 046°16'0 0.0
2016-Jul-19 03:28S 24°06' W 046°16'0 0.0
2016-Jul-19 02:28S 24°06' W 046°16'0 0.0
2016-Jul-19 01:28S 24°06' W 046°16'0 0.0
2016-Jul-19 00:28S 24°06' W 046°16'0 0.0
2016-Jul-18 23:28S 24°06' W 046°16'0 0.0
2016-Jul-18 22:28S 24°06' W 046°16'0 0.0
2016-Jul-18 21:25S 24°06' W 046°16'0 0.0
2016-Jul-18 20:22S 24°06' W 046°16'0 0.0
2016-Jul-18 19:31S 24°06' W 046°16'0 0.0
2016-Jul-18 18:31S 24°06' W 046°16'0 0.0
2016-Jul-18 17:31S 24°06' W 046°16'0 0.0
2016-Jul-18 16:22S 24°06' W 046°16'0 0.0
2016-Jul-18 15:28S 24°06' W 046°16'0 0.0
2016-Jul-18 14:28S 24°06' W 046°16'0 0.0
2016-Jul-18 13:22S 24°06' W 046°16'0 0.0
2016-Jul-18 12:28S 24°06' W 046°16'0 0.0
2016-Jul-18 11:28S 24°06' W 046°16'0 0.0
2016-Jul-18 10:28S 24°06' W 046°16'0 0.0
2016-Jul-18 09:28S 24°06' W 046°16'0 0.0
2016-Jul-18 08:13S 24°06' W 046°16'0 0.0
2016-Jul-18 07:10S 24°06' W 046°16'0 0.1
2016-Jul-18 06:25S 24°06' W 046°16'0 0.0
2016-Jul-18 05:31S 24°06' W 046°16'0 0.0
2016-Jul-18 04:31S 24°06' W 046°16'0 0.0
2016-Jul-18 03:22S 24°06' W 046°16'0 0.0
2016-Jul-18 02:22S 24°06' W 046°16'0 0.0
2016-Jul-18 01:31S 24°06' W 046°16'0 0.0
2016-Jul-18 00:28S 24°06' W 046°16'0 0.0
2016-Jul-17 23:28S 24°06' W 046°16'0 0.0
2016-Jul-17 22:31S 24°06' W 046°16'0 0.0
2016-Jul-17 21:28S 24°06' W 046°16'0 0.0
2016-Jul-17 20:28S 24°06' W 046°16'0 0.0
2016-Jul-17 19:25S 24°06' W 046°16'0 0.0
2016-Jul-17 18:28S 24°06' W 046°16'0 0.0
2016-Jul-17 17:28S 24°06' W 046°16'0 0.0
2016-Jul-17 16:28S 24°06' W 046°16'0 0.0
2016-Jul-17 15:28S 24°06' W 046°16'0 0.0
2016-Jul-17 14:22S 24°06' W 046°16'0 0.0
2016-Jul-17 12:28S 24°06' W 046°16'0 0.0
2016-Jul-17 11:28S 24°06' W 046°16'0 0.0
2016-Jul-17 10:22S 24°06' W 046°16'0 0.0
2016-Jul-17 09:28S 24°06' W 046°16'0 0.0
2016-Jul-17 08:28S 24°06' W 046°16'0 0.0
2016-Jul-17 07:22S 24°06' W 046°16'0 0.0
2016-Jul-17 04:22S 24°06' W 046°16'0 0.0
2016-Jul-17 03:28S 24°06' W 046°16'0 0.0
2016-Jul-17 02:31S 24°06' W 046°16'0 0.0
2016-Jul-17 01:28S 24°06' W 046°16'0 0.0
2016-Jul-17 00:28S 24°06' W 046°16'0 0.0
2016-Jul-16 23:25S 24°06' W 046°16'0 0.0
2016-Jul-16 22:25S 24°06' W 046°16'0 0.0
2016-Jul-16 21:31S 24°06' W 046°16'0 0.0
2016-Jul-16 20:31S 24°06' W 046°16'0 0.0
2016-Jul-16 19:28S 24°06' W 046°16'0 0.0
2016-Jul-16 18:22S 24°06' W 046°16'0 0.1
2016-Jul-16 17:22S 24°06' W 046°16'0 0.1
2016-Jul-16 16:31S 24°06' W 046°16'0 0.0
2016-Jul-16 14:10S 24°06' W 046°16'0 0.0
2016-Jul-16 13:31S 24°06' W 046°16'0 0.0
2016-Jul-16 12:22S 24°06' W 046°16'0 0.1
2016-Jul-16 11:31S 24°06' W 046°16'0 0.0
2016-Jul-16 10:16S 24°06' W 046°16'0 0.0
2016-Jul-16 09:04S 24°06' W 046°16'0 0.0
2016-Jul-16 08:22S 24°06' W 046°16'0 0.0
2016-Jul-16 07:31S 24°06' W 046°16'0 0.1
2016-Jul-16 06:28S 24°06' W 046°16'0 0.1
2016-Jul-16 04:22S 24°06' W 046°16'0 0.0
2016-Jul-16 03:31S 24°06' W 046°16'0 0.0
2016-Jul-16 02:28S 24°06' W 046°16'0 0.0
2016-Jul-16 01:31S 24°06' W 046°16'0 0.0
2016-Jul-16 00:22S 24°06' W 046°16'0 0.0
2016-Jul-15 23:28S 24°06' W 046°16'3 3.7
2016-Jul-15 22:33S 24°10' W 046°17'9 8.9
2016-Jul-15 21:33S 24°14' W 046°25'1110.4
2016-Jul-15 20:32S 24°23' W 046°31'1212.1
2016-Jul-15 19:33S 24°33' W 046°38'1212.2
2016-Jul-15 18:33S 24°41' W 046°49'1312.5
2016-Jul-15 17:33S 24°48' W 046°60'1212.4
2016-Jul-15 16:33S 24°56' W 047°11'1312.3
2016-Jul-15 15:30S 25°03' W 047°22'  
Track history (hours):
 
Tides and Currents Weather Stations Pressure Air Temp Water Temp Dewpoint Dewpoint Depression Visibility Wind Speed Wind Dir Waves Ship Positions

Emmanuel Tomasos

Last reported at 2016-Jul-23 08:17 UTC. Time now 2016-Jul-23 09:19 UTC.
Position S 24°05' W 046°14'.

Length 182 m; draft 8.5 m.

Type: Tanker. MMSI: 311459000.

Date/timePositionNaut miles runAvg speedWind from/ knotsBaromVisibWave heightAir tempDewpointWater temp
2016-Jul-23 08:17S 24°05' W 046°14'0 0.0
2016-Jul-23 06:23S 24°05' W 046°14'0 0.0
2016-Jul-23 04:29S 24°05' W 046°14'0 0.0
2016-Jul-23 03:32S 24°05' W 046°14'0 0.0
2016-Jul-23 02:32S 24°05' W 046°14'0 0.0
2016-Jul-23 01:23S 24°05' W 046°14'0 0.0
2016-Jul-23 00:26S 24°05' W 046°14'0 0.0
2016-Jul-22 23:29S 24°05' W 046°14'0 0.0
2016-Jul-22 21:26S 24°05' W 046°14'0 0.0
2016-Jul-22 20:29S 24°05' W 046°14'0 0.0
2016-Jul-22 19:05S 24°05' W 046°14'0 0.0
2016-Jul-22 18:23S 24°05' W 046°14'0 0.0
2016-Jul-22 17:29S 24°05' W 046°14'0 0.0
2016-Jul-22 16:11S 24°05' W 046°14'0 0.0
2016-Jul-22 15:11S 24°05' W 046°14'0 0.0
2016-Jul-22 14:23S 24°05' W 046°14'0 0.0
2016-Jul-22 13:23S 24°05' W 046°14'0 0.0
2016-Jul-22 12:29S 24°05' W 046°14'0 0.0
2016-Jul-22 11:29S 24°05' W 046°14'0 0.0
2016-Jul-22 10:29S 24°05' W 046°14'0 0.0
2016-Jul-22 09:32S 24°05' W 046°14'0 0.0
2016-Jul-22 08:32S 24°05' W 046°14'0 0.0
2016-Jul-22 07:23S 24°05' W 046°14'0 0.0
2016-Jul-22 04:29S 24°05' W 046°14'0 0.0
2016-Jul-22 03:11S 24°05' W 046°14'0 0.0
2016-Jul-22 02:29S 24°05' W 046°14'0 0.0
2016-Jul-22 01:23S 24°05' W 046°14'0 0.0
2016-Jul-22 00:29S 24°05' W 046°14'0 0.0
2016-Jul-21 23:14S 24°05' W 046°14'0 0.0
2016-Jul-21 22:29S 24°05' W 046°14'0 0.0
2016-Jul-21 21:29S 24°05' W 046°14'0 0.0
2016-Jul-21 20:23S 24°05' W 046°14'0 0.0
2016-Jul-21 19:17S 24°05' W 046°14'0 0.0
2016-Jul-21 18:29S 24°05' W 046°14'2 2.0
2016-Jul-21 17:32S 24°04' W 046°16'5 4.9
2016-Jul-21 16:28S 24°01' W 046°20'0 0.0
2016-Jul-21 15:31S 24°01' W 046°20'0 0.0
2016-Jul-21 14:31S 24°01' W 046°20'0 0.0
2016-Jul-21 13:28S 24°01' W 046°20'1 0.6
2016-Jul-21 12:33S 24°02' W 046°20'6 5.5
2016-Jul-21 11:34S 24°06' W 046°16'0 0.2
2016-Jul-21 10:25S 24°06' W 046°16'0 0.0
2016-Jul-21 09:31S 24°06' W 046°16'0 0.0
2016-Jul-21 08:25S 24°06' W 046°16'0 0.0
2016-Jul-21 07:22S 24°06' W 046°16'0 0.0
2016-Jul-21 06:28S 24°06' W 046°16'0 0.0
2016-Jul-21 05:25S 24°06' W 046°16'0 0.0
2016-Jul-21 04:16S 24°06' W 046°16'0 0.0
2016-Jul-21 03:07S 24°06' W 046°16'0 0.0
2016-Jul-21 02:19S 24°06' W 046°16'0 0.0
2016-Jul-21 01:31S 24°06' W 046°16'0 0.0
2016-Jul-21 00:25S 24°06' W 046°16'0 0.0
2016-Jul-20 23:31S 24°06' W 046°16'0 0.0
2016-Jul-20 22:31S 24°06' W 046°16'0 0.0
2016-Jul-20 21:31S 24°06' W 046°16'0 0.0
2016-Jul-20 20:22S 24°06' W 046°16'0 0.0
2016-Jul-20 19:31S 24°06' W 046°16'0 0.0
2016-Jul-20 18:22S 24°06' W 046°16'0 0.0
2016-Jul-20 17:31S 24°06' W 046°16'0 0.0
2016-Jul-20 16:22S 24°06' W 046°16'0 0.0
2016-Jul-20 15:28S 24°06' W 046°16'0 0.0
2016-Jul-20 14:16S 24°06' W 046°16'0 0.0
2016-Jul-20 13:28S 24°06' W 046°16'0 0.0
2016-Jul-20 12:31S 24°06' W 046°16'0 0.0
2016-Jul-20 11:28S 24°06' W 046°16'0 0.0
2016-Jul-20 10:28S 24°06' W 046°16'0 0.0
2016-Jul-20 09:28S 24°06' W 046°16'0 0.0
2016-Jul-20 08:22S 24°06' W 046°16'0 0.0
2016-Jul-20 07:22S 24°06' W 046°16'0 0.0
2016-Jul-20 06:34S 24°06' W 046°16'0 0.0
2016-Jul-20 04:25S 24°06' W 046°16'0 0.0
2016-Jul-20 03:25S 24°06' W 046°16'0 0.0
2016-Jul-20 02:28S 24°06' W 046°16'0 0.0
2016-Jul-20 01:31S 24°06' W 046°16'0 0.0
2016-Jul-20 00:28S 24°06' W 046°16'0 0.0
2016-Jul-19 23:22S 24°06' W 046°16'0 0.0
2016-Jul-19 22:28S 24°06' W 046°16'0 0.0
2016-Jul-19 21:31S 24°06' W 046°16'0 0.1
2016-Jul-19 20:28S 24°06' W 046°16'0 0.0
2016-Jul-19 19:31S 24°06' W 046°16'0 0.0
2016-Jul-19 18:28S 24°06' W 046°16'0 0.0
2016-Jul-19 17:22S 24°06' W 046°16'0 0.0
2016-Jul-19 16:28S 24°06' W 046°16'0 0.0
2016-Jul-19 15:28S 24°06' W 046°16'0 0.0
2016-Jul-19 14:22S 24°06' W 046°16'0 0.0
2016-Jul-19 13:19S 24°06' W 046°16'0 0.0
2016-Jul-19 12:28S 24°06' W 046°16'0 0.0
2016-Jul-19 11:31S 24°06' W 046°16'0 0.0
2016-Jul-19 10:25S 24°06' W 046°16'0 0.0
2016-Jul-19 09:28S 24°06' W 046°16'0 0.0
2016-Jul-19 08:28S 24°06' W 046°16'0 0.0
2016-Jul-19 07:31S 24°06' W 046°16'0 0.0
2016-Jul-19 06:31S 24°06' W 046°16'0 0.0
2016-Jul-19 04:31S 24°06' W 046°16'0 0.0
2016-Jul-19 03:28S 24°06' W 046°16'0 0.0
2016-Jul-19 02:28S 24°06' W 046°16'0 0.0
2016-Jul-19 01:28S 24°06' W 046°16'0 0.0
2016-Jul-19 00:28S 24°06' W 046°16'0 0.0
2016-Jul-18 23:28S 24°06' W 046°16'0 0.0
2016-Jul-18 22:28S 24°06' W 046°16'0 0.0
2016-Jul-18 21:25S 24°06' W 046°16'0 0.0
2016-Jul-18 20:22S 24°06' W 046°16'0 0.0
2016-Jul-18 19:31S 24°06' W 046°16'0 0.0
2016-Jul-18 18:31S 24°06' W 046°16'0 0.0
2016-Jul-18 17:31S 24°06' W 046°16'0 0.0
2016-Jul-18 16:22S 24°06' W 046°16'0 0.0
2016-Jul-18 15:28S 24°06' W 046°16'0 0.0
2016-Jul-18 14:28S 24°06' W 046°16'0 0.0
2016-Jul-18 13:22S 24°06' W 046°16'0 0.0
2016-Jul-18 12:28S 24°06' W 046°16'0 0.0
2016-Jul-18 11:28S 24°06' W 046°16'0 0.0
2016-Jul-18 10:28S 24°06' W 046°16'0 0.0
2016-Jul-18 09:28S 24°06' W 046°16'0 0.0
2016-Jul-18 08:13S 24°06' W 046°16'0 0.0
2016-Jul-18 07:10S 24°06' W 046°16'0 0.1
2016-Jul-18 06:25S 24°06' W 046°16'0 0.0
2016-Jul-18 05:31S 24°06' W 046°16'0 0.0
2016-Jul-18 04:31S 24°06' W 046°16'0 0.0
2016-Jul-18 03:22S 24°06' W 046°16'0 0.0
2016-Jul-18 02:22S 24°06' W 046°16'0 0.0
2016-Jul-18 01:31S 24°06' W 046°16'0 0.0
2016-Jul-18 00:28S 24°06' W 046°16'0 0.0
2016-Jul-17 23:28S 24°06' W 046°16'0 0.0
2016-Jul-17 22:31S 24°06' W 046°16'0 0.0
2016-Jul-17 21:28S 24°06' W 046°16'0 0.0
2016-Jul-17 20:28S 24°06' W 046°16'0 0.0
2016-Jul-17 19:25S 24°06' W 046°16'0 0.0
2016-Jul-17 18:28S 24°06' W 046°16'0 0.0
2016-Jul-17 17:28S 24°06' W 046°16'0 0.0
2016-Jul-17 16:28S 24°06' W 046°16'0 0.0
2016-Jul-17 15:28S 24°06' W 046°16'0 0.0
2016-Jul-17 14:22S 24°06' W 046°16'0 0.0
2016-Jul-17 12:28S 24°06' W 046°16'0 0.0
2016-Jul-17 11:28S 24°06' W 046°16'0 0.0
2016-Jul-17 10:22S 24°06' W 046°16'0 0.0
2016-Jul-17 09:28S 24°06' W 046°16'0 0.0
2016-Jul-17 08:28S 24°06' W 046°16'0 0.0
2016-Jul-17 07:22S 24°06' W 046°16'0 0.0
2016-Jul-17 04:22S 24°06' W 046°16'0 0.0
2016-Jul-17 03:28S 24°06' W 046°16'0 0.0
2016-Jul-17 02:31S 24°06' W 046°16'0 0.0
2016-Jul-17 01:28S 24°06' W 046°16'0 0.0
2016-Jul-17 00:28S 24°06' W 046°16'0 0.0
2016-Jul-16 23:25S 24°06' W 046°16'0 0.0
2016-Jul-16 22:25S 24°06' W 046°16'0 0.0
2016-Jul-16 21:31S 24°06' W 046°16'0 0.0
2016-Jul-16 20:31S 24°06' W 046°16'0 0.0
2016-Jul-16 19:28S 24°06' W 046°16'0 0.0
2016-Jul-16 18:22S 24°06' W 046°16'0 0.1
2016-Jul-16 17:22S 24°06' W 046°16'0 0.1
2016-Jul-16 16:31S 24°06' W 046°16'0 0.0
2016-Jul-16 14:10S 24°06' W 046°16'0 0.0
2016-Jul-16 13:31S 24°06' W 046°16'0 0.0
2016-Jul-16 12:22S 24°06' W 046°16'0 0.1
2016-Jul-16 11:31S 24°06' W 046°16'0 0.0
2016-Jul-16 10:16S 24°06' W 046°16'0 0.0
2016-Jul-16 09:04S 24°06' W 046°16'0 0.0
2016-Jul-16 08:22S 24°06' W 046°16'0 0.0
2016-Jul-16 07:31S 24°06' W 046°16'0 0.1
2016-Jul-16 06:28S 24°06' W 046°16'0 0.1
2016-Jul-16 04:22S 24°06' W 046°16'0 0.0
2016-Jul-16 03:31S 24°06' W 046°16'0 0.0
2016-Jul-16 02:28S 24°06' W 046°16'0 0.0
2016-Jul-16 01:31S 24°06' W 046°16'0 0.0
2016-Jul-16 00:22S 24°06' W 046°16'0 0.0
2016-Jul-15 23:28S 24°06' W 046°16'3 3.7
2016-Jul-15 22:33S 24°10' W 046°17'9 8.9
2016-Jul-15 21:33S 24°14' W 046°25'1110.4
2016-Jul-15 20:32S 24°23' W 046°31'1212.1
2016-Jul-15 19:33S 24°33' W 046°38'1212.2
2016-Jul-15 18:33S 24°41' W 046°49'1312.5
2016-Jul-15 17:33S 24°48' W 046°60'1212.4
2016-Jul-15 16:33S 24°56' W 047°11'1312.3
2016-Jul-15 15:30S 25°03' W 047°22'  

Dump ship's entire track history